createdAt,value
2018-11-02T00:01:22.304Z,13.20
2018-11-02T00:03:50.762Z,13.30
2018-11-02T00:06:19.311Z,13.20
2018-11-02T00:08:47.855Z,13.20
2018-11-02T00:11:16.436Z,13.00
2018-11-02T00:13:44.867Z,13.00
2018-11-02T00:16:13.395Z,12.90
2018-11-02T00:18:41.865Z,13.00
2018-11-02T00:21:10.342Z,12.90
2018-11-02T00:23:39.121Z,13.00
2018-11-02T00:26:07.826Z,12.90
2018-11-02T00:28:36.297Z,13.00
2018-11-02T00:31:05.172Z,12.90
2018-11-02T00:33:33.666Z,12.80
2018-11-02T00:36:02.143Z,12.70
2018-11-02T00:38:30.682Z,12.60
2018-11-02T00:40:59.219Z,12.60
2018-11-02T00:43:27.787Z,12.60
2018-11-02T00:45:56.366Z,12.60
2018-11-02T00:48:24.841Z,12.40
2018-11-02T00:50:53.439Z,12.60
2018-11-02T00:53:21.941Z,12.60
2018-11-02T00:55:50.393Z,12.60
2018-11-02T00:58:18.872Z,12.70
2018-11-02T01:00:47.379Z,12.70
2018-11-02T01:03:15.946Z,12.60
2018-11-02T01:05:50.991Z,12.40
2018-11-02T01:08:19.544Z,12.30
2018-11-02T01:10:48.038Z,12.10
2018-11-02T01:13:16.520Z,12.10
2018-11-02T01:15:45.294Z,12.10
2018-11-02T01:18:13.741Z,12.00
2018-11-02T01:20:42.251Z,12.10
2018-11-02T01:23:10.752Z,12.20
2018-11-02T01:25:45.660Z,12.40
2018-11-02T01:28:14.142Z,12.30
2018-11-02T01:30:42.620Z,12.30
2018-11-02T01:33:11.209Z,12.30
2018-11-02T01:35:39.760Z,12.40
2018-11-02T01:38:08.211Z,12.40
2018-11-02T01:40:36.841Z,12.40
2018-11-02T01:43:06.159Z,12.60
2018-11-02T01:45:34.623Z,12.60
2018-11-02T01:48:03.121Z,12.70
2018-11-02T01:50:31.697Z,12.80
2018-11-02T01:53:00.224Z,12.80
2018-11-02T01:55:28.715Z,12.70
2018-11-02T01:57:57.172Z,12.70
2018-11-02T02:00:25.680Z,12.60
2018-11-02T02:02:54.184Z,12.60
2018-11-02T02:05:22.622Z,12.50
2018-11-02T02:07:51.154Z,12.50
2018-11-02T02:10:19.661Z,12.40
2018-11-02T02:12:48.188Z,12.40
2018-11-02T02:15:16.681Z,12.30
2018-11-02T02:17:45.180Z,12.30
2018-11-02T02:20:13.700Z,12.30
2018-11-02T02:22:42.220Z,12.30
2018-11-02T02:25:10.699Z,12.30
2018-11-02T02:27:39.592Z,12.30
2018-11-02T02:30:12.082Z,12.30
2018-11-02T02:32:40.660Z,12.30
2018-11-02T02:35:10.059Z,12.30
2018-11-02T02:37:39.771Z,12.30
2018-11-02T02:40:09.876Z,12.20
2018-11-02T02:42:38.669Z,12.10
2018-11-02T02:45:07.841Z,12.00
2018-11-02T02:47:36.441Z,12.00
2018-11-02T02:50:06.961Z,12.00
2018-11-02T02:52:35.471Z,11.90
2018-11-02T02:55:04.137Z,11.90
2018-11-02T02:57:32.560Z,11.90
2018-11-02T03:00:01.099Z,11.80
2018-11-02T03:02:29.648Z,11.80
2018-11-02T03:04:58.156Z,11.60
2018-11-02T03:07:26.749Z,11.50
2018-11-02T03:09:55.199Z,11.30
2018-11-02T03:12:23.805Z,11.30
2018-11-02T03:14:52.385Z,11.20
2018-11-02T03:17:20.849Z,11.20
2018-11-02T03:19:49.282Z,11.10
2018-11-02T03:22:17.837Z,11.00
2018-11-02T03:24:46.269Z,10.80
2018-11-02T03:27:14.721Z,10.60
2018-11-02T03:29:43.321Z,10.40
2018-11-02T03:32:11.935Z,10.50
2018-11-02T03:34:40.480Z,10.60
2018-11-02T03:37:09.108Z,10.60
2018-11-02T03:39:37.695Z,10.70
2018-11-02T03:42:06.984Z,10.70
2018-11-02T03:44:35.461Z,10.70
2018-11-02T03:47:03.958Z,10.70
2018-11-02T03:49:32.459Z,10.70
2018-11-02T03:52:00.940Z,10.60
2018-11-02T03:54:29.479Z,11.00
2018-11-02T03:56:58.142Z,10.90
2018-11-02T03:59:26.441Z,10.80
2018-11-02T04:01:55.031Z,10.70
2018-11-02T04:04:23.531Z,10.60
2018-11-02T04:06:52.096Z,10.40
2018-11-02T04:09:20.637Z,10.20
2018-11-02T04:11:49.138Z,10.10
2018-11-02T04:14:17.629Z,10.00
2018-11-02T04:16:46.181Z,10.00
2018-11-02T04:19:14.631Z,10.00
2018-11-02T04:21:47.285Z,10.00
2018-11-02T04:24:15.902Z,10.00
2018-11-02T04:26:44.427Z,10.00
2018-11-02T04:29:14.146Z,9.90
2018-11-02T04:31:43.339Z,9.70
2018-11-02T04:34:12.457Z,9.70
2018-11-02T04:36:40.922Z,9.50
2018-11-02T04:39:12.661Z,9.30
2018-11-02T04:41:41.189Z,9.20
2018-11-02T04:44:10.511Z,9.20
2018-11-02T04:46:39.363Z,9.40
2018-11-02T04:49:08.421Z,9.30
2018-11-02T04:51:37.110Z,9.10
2018-11-02T04:54:05.879Z,9.00
2018-11-02T04:56:34.420Z,9.10
2018-11-02T04:59:02.901Z,9.20
2018-11-02T05:01:31.437Z,9.20
2018-11-02T05:04:00.002Z,9.20
2018-11-02T05:06:28.440Z,9.00
2018-11-02T05:08:56.865Z,8.90
2018-11-02T05:11:25.545Z,8.80
2018-11-02T05:13:53.978Z,8.80
2018-11-02T05:16:22.393Z,8.70
2018-11-02T05:18:50.900Z,8.60
2018-11-02T05:21:19.393Z,8.50
2018-11-02T05:23:47.789Z,8.40
2018-11-02T05:26:16.341Z,8.40
2018-11-02T05:28:51.268Z,8.40
2018-11-02T05:31:19.783Z,8.30
2018-11-02T05:33:48.440Z,8.20
2018-11-02T05:36:16.982Z,8.20
2018-11-02T05:38:45.491Z,8.20
2018-11-02T05:41:14.069Z,8.30
2018-11-02T05:43:42.541Z,8.30
2018-11-02T05:46:11.080Z,8.30
2018-11-02T05:48:39.609Z,8.30
2018-11-02T05:51:08.308Z,8.30
2018-11-02T05:53:36.847Z,8.20
2018-11-02T05:56:05.661Z,8.20
2018-11-02T05:58:34.141Z,8.30
2018-11-02T06:01:02.740Z,8.40
2018-11-02T06:03:31.274Z,8.40
2018-11-02T06:05:59.795Z,8.40
2018-11-02T06:08:28.275Z,8.40
2018-11-02T06:10:56.856Z,8.50
2018-11-02T06:13:25.592Z,8.60
2018-11-02T06:15:54.117Z,8.50
2018-11-02T06:18:23.050Z,8.50
2018-11-02T06:20:51.684Z,8.60
2018-11-02T06:23:20.283Z,8.80
2018-11-02T06:25:49.476Z,8.90
2018-11-02T06:28:18.175Z,9.00
2018-11-02T06:30:46.808Z,9.10
2018-11-02T06:33:18.276Z,9.30
2018-11-02T06:35:46.744Z,9.40
2018-11-02T06:38:15.241Z,9.60
2018-11-02T06:40:43.720Z,9.70
2018-11-02T06:43:12.181Z,9.90
2018-11-02T06:45:40.810Z,10.10
2018-11-02T06:48:09.402Z,10.40
2018-11-02T06:50:37.915Z,10.60
2018-11-02T06:53:06.424Z,11.10
2018-11-02T06:55:34.854Z,11.70
2018-11-02T06:58:03.390Z,12.90
2018-11-02T07:00:32.644Z,14.40
2018-11-02T07:03:01.110Z,15.60
2018-11-02T07:05:29.756Z,16.80
2018-11-02T07:07:58.350Z,16.80
2018-11-02T07:10:26.732Z,17.40
2018-11-02T07:12:55.421Z,18.00
2018-11-02T07:15:23.969Z,18.80
2018-11-02T07:17:52.465Z,20.00
2018-11-02T07:20:21.004Z,21.30
2018-11-02T07:22:49.411Z,21.40
2018-11-02T07:25:17.916Z,22.00
2018-11-02T07:27:46.379Z,22.80
2018-11-02T07:30:18.341Z,23.00
2018-11-02T07:32:47.017Z,22.20
2018-11-02T07:35:15.514Z,22.30
2018-11-02T07:37:44.308Z,23.80
2018-11-02T07:40:12.856Z,24.30
2018-11-02T07:42:41.548Z,24.00
2018-11-02T07:45:10.536Z,23.10
2018-11-02T07:47:39.378Z,22.90
2018-11-02T07:50:09.720Z,22.20
2018-11-02T07:52:38.285Z,23.40
2018-11-02T07:55:08.717Z,24.20
2018-11-02T07:57:37.640Z,24.40
2018-11-02T08:00:06.331Z,24.20
2018-11-02T08:02:34.910Z,24.30
2018-11-02T08:05:03.583Z,23.60
2018-11-02T08:07:32.451Z,24.20
2018-11-02T08:10:01.077Z,24.50
2018-11-02T08:12:29.641Z,23.30
2018-11-02T08:14:58.436Z,23.00
2018-11-02T08:17:27.252Z,24.60
2018-11-02T08:19:55.804Z,25.00
2018-11-02T08:22:24.491Z,25.90
2018-11-02T08:24:53.276Z,25.80
2018-11-02T08:27:21.856Z,26.40
2018-11-02T08:29:50.471Z,28.00
2018-11-02T08:32:19.045Z,28.80
2018-11-02T08:34:47.925Z,29.10
2018-11-02T08:37:16.542Z,29.00
2018-11-02T08:39:45.141Z,28.50
2018-11-02T08:42:13.720Z,29.00
2018-11-02T08:44:42.352Z,29.80
2018-11-02T08:47:10.931Z,29.80
2018-11-02T08:49:39.510Z,30.50
2018-11-02T08:52:08.202Z,30.60
2018-11-02T08:54:36.782Z,30.20
2018-11-02T08:57:05.496Z,30.70
2018-11-02T08:59:34.182Z,31.20
2018-11-02T09:02:02.737Z,32.00
2018-11-02T09:04:31.278Z,32.80
2018-11-02T09:06:59.997Z,32.40
2018-11-02T09:09:28.453Z,31.70
2018-11-02T09:11:57.127Z,30.80
2018-11-02T09:14:26.730Z,28.10
2018-11-02T09:16:55.230Z,27.80
2018-11-02T09:19:23.875Z,27.00
2018-11-02T09:21:52.319Z,26.50
2018-11-02T09:24:20.881Z,27.60
2018-11-02T09:26:49.571Z,28.10
2018-11-02T09:29:18.040Z,29.10
2018-11-02T09:31:46.511Z,29.00
2018-11-02T09:34:15.107Z,28.80
2018-11-02T09:36:43.584Z,27.90
2018-11-02T09:39:12.997Z,29.10
2018-11-02T09:41:41.491Z,29.40
2018-11-02T09:44:09.940Z,30.00
2018-11-02T09:46:45.214Z,29.90
2018-11-02T09:49:13.769Z,30.30
2018-11-02T09:51:42.362Z,30.30
2018-11-02T09:54:11.035Z,29.40
2018-11-02T09:56:39.535Z,28.80
2018-11-02T09:59:11.161Z,28.10
2018-11-02T10:01:39.958Z,28.00
2018-11-02T10:04:11.382Z,27.60
2018-11-02T10:06:39.997Z,28.40
2018-11-02T10:09:10.423Z,28.30
2018-11-02T10:11:38.996Z,26.50
2018-11-02T10:14:07.871Z,26.30
2018-11-02T10:16:36.446Z,27.50
2018-11-02T10:19:05.281Z,26.70
2018-11-02T10:21:33.742Z,27.30
2018-11-02T10:24:02.345Z,27.00
2018-11-02T10:26:30.789Z,27.80
2018-11-02T10:28:59.470Z,27.90
2018-11-02T10:31:27.928Z,28.00
2018-11-02T10:33:57.334Z,27.50
2018-11-02T10:36:25.855Z,26.20
2018-11-02T10:38:54.950Z,26.30
2018-11-02T10:41:29.148Z,27.20
2018-11-02T10:43:57.620Z,27.90
2018-11-02T10:46:26.069Z,27.10
2018-11-02T10:48:54.605Z,27.30
2018-11-02T10:51:23.364Z,27.20
2018-11-02T10:53:51.849Z,28.30
2018-11-02T10:56:20.436Z,28.50
2018-11-02T10:58:48.850Z,28.70
2018-11-02T11:01:21.603Z,29.20
2018-11-02T11:03:50.127Z,29.20
2018-11-02T11:06:18.653Z,29.30
2018-11-02T11:08:47.159Z,28.20
2018-11-02T11:11:15.719Z,28.10
2018-11-02T11:13:44.718Z,28.30
2018-11-02T11:16:12.976Z,28.90
2018-11-02T11:18:41.454Z,29.40
2018-11-02T11:21:10.024Z,30.30
2018-11-02T11:23:38.525Z,29.80
2018-11-02T11:26:06.984Z,30.50
2018-11-02T11:28:35.481Z,29.30
2018-11-02T11:31:04.160Z,28.90
2018-11-02T11:33:32.645Z,29.30
2018-11-02T11:36:01.184Z,30.80
2018-11-02T11:38:29.817Z,29.90
2018-11-02T11:40:58.389Z,29.80
2018-11-02T11:43:29.865Z,30.60
2018-11-02T11:45:58.363Z,29.80
2018-11-02T11:48:26.878Z,29.10
2018-11-02T11:50:56.391Z,29.10
2018-11-02T11:53:24.849Z,27.90
2018-11-02T11:55:53.320Z,27.90
2018-11-02T11:58:21.957Z,28.00
2018-11-02T12:00:50.459Z,28.40
2018-11-02T12:03:18.950Z,29.00
2018-11-02T12:05:47.610Z,29.30
2018-11-02T12:08:16.122Z,29.50
2018-11-02T12:10:44.588Z,28.70
2018-11-02T12:13:13.110Z,27.70
2018-11-02T12:15:41.610Z,28.30
2018-11-02T12:18:10.079Z,28.40
2018-11-02T12:20:38.677Z,28.50
2018-11-02T12:23:07.351Z,28.70
2018-11-02T12:25:35.811Z,28.50
2018-11-02T12:28:04.823Z,27.50
2018-11-02T12:30:34.285Z,27.40
2018-11-02T12:33:02.815Z,27.40
2018-11-02T12:35:31.303Z,27.50
2018-11-02T12:38:00.161Z,27.70
2018-11-02T12:40:28.735Z,27.00
2018-11-02T12:42:57.442Z,27.90
2018-11-02T12:45:25.995Z,27.70
2018-11-02T12:47:54.651Z,27.40
2018-11-02T12:50:25.646Z,27.60
2018-11-02T12:52:55.346Z,26.10
2018-11-02T12:55:24.094Z,25.70
2018-11-02T12:57:52.628Z,26.10
2018-11-02T13:00:22.546Z,26.40
2018-11-02T13:02:51.846Z,26.10
2018-11-02T13:05:20.357Z,25.90
2018-11-02T13:07:48.890Z,25.10
2018-11-02T13:10:18.675Z,25.20
2018-11-02T13:12:50.379Z,25.30
2018-11-02T13:15:20.485Z,25.00
2018-11-02T13:17:49.650Z,24.60
2018-11-02T13:20:18.256Z,24.00
2018-11-02T13:22:47.761Z,23.70
2018-11-02T13:25:17.519Z,23.40
2018-11-02T13:27:46.873Z,22.90
2018-11-02T13:30:15.518Z,22.80
2018-11-02T13:32:43.946Z,22.70
2018-11-02T13:35:14.771Z,22.20
2018-11-02T13:37:43.989Z,21.90
2018-11-02T13:40:13.961Z,21.50
2018-11-02T13:42:42.899Z,21.30
2018-11-02T13:45:12.661Z,21.10
2018-11-02T13:47:42.088Z,20.60
2018-11-02T13:50:11.103Z,20.40
2018-11-02T13:52:39.975Z,20.10
2018-11-02T13:55:09.841Z,19.80
2018-11-02T13:57:39.072Z,19.50
2018-11-02T14:00:09.819Z,19.10
2018-11-02T14:02:38.326Z,18.90
2018-11-02T14:05:08.275Z,18.50
2018-11-02T14:07:36.788Z,18.30
2018-11-02T14:10:05.805Z,18.10
2018-11-02T14:12:34.911Z,17.80
2018-11-02T14:15:03.739Z,17.60
2018-11-02T14:17:33.379Z,17.40
2018-11-02T14:20:02.048Z,17.20
2018-11-02T14:22:30.620Z,17.00
2018-11-02T14:24:59.055Z,16.70
2018-11-02T14:27:27.471Z,16.50
2018-11-02T14:29:56.056Z,16.30
2018-11-02T14:32:24.598Z,16.10
2018-11-02T14:34:53.112Z,16.00
2018-11-02T14:37:21.609Z,15.90
2018-11-02T14:39:50.533Z,15.80
2018-11-02T14:42:19.081Z,15.60
2018-11-02T14:44:47.544Z,15.40
2018-11-02T14:47:15.991Z,15.20
2018-11-02T14:49:44.507Z,15.00
2018-11-02T14:52:12.997Z,14.90
2018-11-02T14:54:41.487Z,14.90
2018-11-02T14:57:09.995Z,14.90
2018-11-02T14:59:38.548Z,14.80
2018-11-02T15:02:07.124Z,14.70
2018-11-02T15:04:35.715Z,14.70
2018-11-02T15:07:04.286Z,14.60
2018-11-02T15:09:32.711Z,14.60
2018-11-02T15:12:01.240Z,14.50
2018-11-02T15:14:29.751Z,14.40
2018-11-02T15:16:58.317Z,14.20
2018-11-02T15:19:26.786Z,14.10
2018-11-02T15:21:55.272Z,14.00
2018-11-02T15:24:23.822Z,13.90
2018-11-02T15:26:52.297Z,13.90
2018-11-02T15:29:20.849Z,13.90
2018-11-02T15:31:49.350Z,13.80
2018-11-02T15:34:17.825Z,13.80
2018-11-02T15:36:46.348Z,13.80
2018-11-02T15:39:14.881Z,13.80
2018-11-02T15:41:43.371Z,13.70
2018-11-02T15:44:12.168Z,13.70
2018-11-02T15:46:40.635Z,13.60
2018-11-02T15:49:09.160Z,13.50
2018-11-02T15:51:37.739Z,13.40
2018-11-02T15:54:06.422Z,13.30
2018-11-02T15:56:35.006Z,13.30
2018-11-02T15:59:03.587Z,13.20
2018-11-02T16:01:32.063Z,13.20
2018-11-02T16:04:00.658Z,13.10
2018-11-02T16:06:29.133Z,13.00
2018-11-02T16:08:57.571Z,13.00
2018-11-02T16:11:26.056Z,12.90
2018-11-02T16:13:54.580Z,12.90
2018-11-02T16:16:23.051Z,12.80
2018-11-02T16:18:51.517Z,12.60
2018-11-02T16:21:20.063Z,12.50
2018-11-02T16:23:48.524Z,12.30
2018-11-02T16:26:17.094Z,12.20
2018-11-02T16:28:45.656Z,11.90
2018-11-02T16:31:14.171Z,11.70
2018-11-02T16:33:42.711Z,11.70
2018-11-02T16:36:11.192Z,11.80
2018-11-02T16:38:39.774Z,11.70
2018-11-02T16:41:08.353Z,11.60
2018-11-02T16:43:36.903Z,11.50
2018-11-02T16:46:05.324Z,11.50
2018-11-02T16:48:33.912Z,11.50
2018-11-02T16:51:02.367Z,11.50
2018-11-02T16:53:30.822Z,11.50
2018-11-02T16:55:59.449Z,11.50
2018-11-02T16:58:27.989Z,11.50
2018-11-02T17:00:56.503Z,11.30
2018-11-02T17:03:25.360Z,11.30
2018-11-02T17:05:53.866Z,11.20
2018-11-02T17:08:22.351Z,11.20
2018-11-02T17:10:50.931Z,11.30
2018-11-02T17:13:19.520Z,11.20
2018-11-02T17:15:47.992Z,11.20
2018-11-02T17:18:16.618Z,11.20
2018-11-02T17:20:45.159Z,11.10
2018-11-02T17:23:13.595Z,11.10
2018-11-02T17:25:42.092Z,11.10
2018-11-02T17:28:10.657Z,11.10
2018-11-02T17:30:39.143Z,11.10
2018-11-02T17:33:07.656Z,11.20
2018-11-02T17:35:36.145Z,11.30
2018-11-02T17:38:04.719Z,11.40
2018-11-02T17:40:33.153Z,11.50
2018-11-02T17:43:01.687Z,11.60
2018-11-02T17:45:30.261Z,11.80
2018-11-02T17:47:58.852Z,11.90
2018-11-02T17:50:28.436Z,12.10
2018-11-02T17:52:56.912Z,12.30
2018-11-02T17:55:25.407Z,12.40
2018-11-02T17:57:53.930Z,12.50
2018-11-02T18:00:22.477Z,12.60
2018-11-02T18:02:50.922Z,12.60
2018-11-02T18:05:19.429Z,12.70
2018-11-02T18:07:48.052Z,12.80
2018-11-02T18:10:16.607Z,12.80
2018-11-02T18:12:45.108Z,12.90
2018-11-02T18:15:14.167Z,12.90
2018-11-02T18:17:42.629Z,12.90
2018-11-02T18:20:13.252Z,12.90
2018-11-02T18:22:41.883Z,12.90
2018-11-02T18:25:10.656Z,12.90
2018-11-02T18:27:39.433Z,12.90
2018-11-02T18:30:09.099Z,12.90
2018-11-02T18:32:40.497Z,12.90
2018-11-02T18:35:09.627Z,12.90
2018-11-02T18:37:38.267Z,12.90
2018-11-02T18:40:09.016Z,12.90
2018-11-02T18:42:37.642Z,12.80
2018-11-02T18:45:08.513Z,12.80
2018-11-02T18:47:41.220Z,12.70
2018-11-02T18:50:09.716Z,12.60
2018-11-02T18:52:38.751Z,12.40
2018-11-02T18:55:07.811Z,12.30
2018-11-02T18:57:36.305Z,12.20
2018-11-02T19:00:08.703Z,12.20
2018-11-02T19:02:37.630Z,12.10
2018-11-02T19:05:08.418Z,12.10
2018-11-02T19:07:37.119Z,12.00
2018-11-02T19:10:06.096Z,11.90
2018-11-02T19:12:34.698Z,11.90
2018-11-02T19:15:03.290Z,11.90
2018-11-02T19:17:31.871Z,12.00
2018-11-02T19:20:00.810Z,12.00
2018-11-02T19:22:29.172Z,12.10
2018-11-02T19:24:57.811Z,12.00
2018-11-02T19:27:26.408Z,12.00
2018-11-02T19:29:54.915Z,12.00
2018-11-02T19:32:23.551Z,12.10
2018-11-02T19:34:53.239Z,12.10
2018-11-02T19:37:21.618Z,12.00
2018-11-02T19:39:50.204Z,12.00
2018-11-02T19:42:18.723Z,12.00
2018-11-02T19:44:47.382Z,12.00
2018-11-02T19:47:16.523Z,11.90
2018-11-02T19:49:45.161Z,11.90
2018-11-02T19:52:13.778Z,11.80
2018-11-02T19:54:42.427Z,11.80
2018-11-02T19:57:10.983Z,11.80
2018-11-02T19:59:43.518Z,11.90
2018-11-02T20:02:13.226Z,12.00
2018-11-02T20:04:42.918Z,12.10
2018-11-02T20:07:11.446Z,12.20
2018-11-02T20:09:40.004Z,12.30
2018-11-02T20:12:08.674Z,12.30
2018-11-02T20:14:37.207Z,12.40
2018-11-02T20:17:05.927Z,12.40
2018-11-02T20:19:34.499Z,12.40
2018-11-02T20:22:03.061Z,12.40
2018-11-02T20:24:31.749Z,12.40
2018-11-02T20:27:00.292Z,12.30
2018-11-02T20:29:28.883Z,12.30
2018-11-02T20:31:58.526Z,12.20
2018-11-02T20:34:27.012Z,12.10
2018-11-02T20:36:55.903Z,12.10
2018-11-02T20:39:24.422Z,12.10
2018-11-02T20:41:54.036Z,12.10
2018-11-02T20:44:23.571Z,12.10
2018-11-02T20:46:52.172Z,12.10
2018-11-02T20:49:20.698Z,12.00
2018-11-02T20:51:49.211Z,12.00
2018-11-02T20:54:17.742Z,12.00
2018-11-02T20:56:46.290Z,12.00
2018-11-02T20:59:14.877Z,12.00
2018-11-02T21:01:43.559Z,12.00
2018-11-02T21:04:12.111Z,11.90
2018-11-02T21:06:40.649Z,12.00
2018-11-02T21:09:11.199Z,12.00
2018-11-02T21:11:39.640Z,12.00
2018-11-02T21:14:08.315Z,12.00
2018-11-02T21:16:36.907Z,12.00
2018-11-02T21:19:05.542Z,12.00
2018-11-02T21:21:34.026Z,11.90
2018-11-02T21:24:02.649Z,11.90
2018-11-02T21:26:31.436Z,12.00
2018-11-02T21:29:00.096Z,11.90
2018-11-02T21:31:28.698Z,11.90
2018-11-02T21:33:57.421Z,11.90
2018-11-02T21:36:26.199Z,11.90
2018-11-02T21:38:54.841Z,11.90
2018-11-02T21:41:23.341Z,11.90
2018-11-02T21:43:51.849Z,12.00
2018-11-02T21:46:20.496Z,12.00
2018-11-02T21:48:49.132Z,12.00
2018-11-02T21:51:17.636Z,12.00
2018-11-02T21:53:46.226Z,12.00
2018-11-02T21:56:14.750Z,12.00
2018-11-02T21:58:43.478Z,12.00
2018-11-02T22:01:11.978Z,12.00
2018-11-02T22:03:40.637Z,12.00
2018-11-02T22:06:09.144Z,11.90
2018-11-02T22:08:37.731Z,11.80
2018-11-02T22:11:06.294Z,11.80
2018-11-02T22:13:34.734Z,11.70
2018-11-02T22:16:03.227Z,11.80
2018-11-02T22:18:31.819Z,11.80
2018-11-02T22:21:00.283Z,11.70
2018-11-02T22:23:28.843Z,11.70
2018-11-02T22:25:57.378Z,11.70
2018-11-02T22:28:25.922Z,11.70
2018-11-02T22:30:56.746Z,11.70
2018-11-02T22:33:25.186Z,11.70
2018-11-02T22:35:53.658Z,11.70
2018-11-02T22:38:22.081Z,11.60
2018-11-02T22:40:50.561Z,11.60
2018-11-02T22:43:19.117Z,11.60
2018-11-02T22:45:47.695Z,11.60
2018-11-02T22:48:20.308Z,11.60
2018-11-02T22:50:48.956Z,11.60
2018-11-02T22:53:17.415Z,11.60
2018-11-02T22:55:45.899Z,11.50
2018-11-02T22:58:14.506Z,11.60
2018-11-02T23:00:47.131Z,11.50
2018-11-02T23:03:15.635Z,11.50
2018-11-02T23:05:44.158Z,11.40
2018-11-02T23:08:12.600Z,11.40
2018-11-02T23:10:41.125Z,11.40
2018-11-02T23:13:09.598Z,11.40
2018-11-02T23:15:38.156Z,11.40
2018-11-02T23:18:06.652Z,11.40
2018-11-02T23:20:35.121Z,11.40
2018-11-02T23:23:03.642Z,11.40
2018-11-02T23:25:32.091Z,11.30
2018-11-02T23:28:00.556Z,11.30
2018-11-02T23:30:29.023Z,11.30
2018-11-02T23:32:57.485Z,11.30
2018-11-02T23:35:25.955Z,11.30
2018-11-02T23:37:54.871Z,11.20
2018-11-02T23:40:23.311Z,11.10
2018-11-02T23:42:51.838Z,11.00
2018-11-02T23:45:20.325Z,10.90
2018-11-02T23:47:53.250Z,10.90
2018-11-02T23:50:21.779Z,10.90
2018-11-02T23:52:50.230Z,10.90
2018-11-02T23:55:18.846Z,10.90
2018-11-02T23:57:47.292Z,10.80
